sensor_id;sensor_type;location;lat;lon;timestamp;P1;durP1;ratioP1;P2;durP2;ratioP2
7653;SDS011;3869;48.406;10.774;2022-10-04T00:01:23;0.60;;;0.60;;
7653;SDS011;3869;48.406;10.774;2022-10-04T00:04:00;0.60;;;0.50;;
7653;SDS011;3869;48.406;10.774;2022-10-04T00:06:32;0.70;;;0.60;;
7653;SDS011;3869;48.406;10.774;2022-10-04T00:09:04;0.60;;;0.50;;
7653;SDS011;3869;48.406;10.774;2022-10-04T00:11:35;0.60;;;0.50;;
7653;SDS011;3869;48.406;10.774;2022-10-04T00:14:06;0.70;;;0.70;;
7653;SDS011;3869;48.406;10.774;2022-10-04T00:16:40;0.60;;;0.50;;
7653;SDS011;3869;48.406;10.774;2022-10-04T00:19:20;0.73;;;0.70;;
7653;SDS011;3869;48.406;10.774;2022-10-04T00:30:43;1.17;;;0.80;;
7653;SDS011;3869;48.406;10.774;2022-10-04T00:33:11;1.10;;;1.00;;
7653;SDS011;3869;48.406;10.774;2022-10-04T00:36:18;1.20;;;1.10;;
7653;SDS011;3869;48.406;10.774;2022-10-04T00:39:24;0.60;;;0.60;;
7653;SDS011;3869;48.406;10.774;2022-10-04T00:45:11;0.70;;;0.70;;
7653;SDS011;3869;48.406;10.774;2022-10-04T00:48:00;1.03;;;0.70;;
7653;SDS011;3869;48.406;10.774;2022-10-04T00:50:57;0.60;;;0.50;;
7653;SDS011;3869;48.406;10.774;2022-10-04T00:53:36;0.60;;;0.60;;
7653;SDS011;3869;48.406;10.774;2022-10-04T00:56:14;1.00;;;0.90;;
7653;SDS011;3869;48.406;10.774;2022-10-04T00:59:04;0.70;;;0.60;;
7653;SDS011;3869;48.406;10.774;2022-10-04T01:01:43;0.70;;;0.60;;
7653;SDS011;3869;48.406;10.774;2022-10-04T01:04:22;0.60;;;0.50;;
7653;SDS011;3869;48.406;10.774;2022-10-04T01:06:55;0.60;;;0.60;;
7653;SDS011;3869;48.406;10.774;2022-10-04T01:09:25;0.60;;;0.50;;
7653;SDS011;3869;48.406;10.774;2022-10-04T01:11:56;0.60;;;0.50;;
7653;SDS011;3869;48.406;10.774;2022-10-04T01:14:33;1.33;;;1.13;;
7653;SDS011;3869;48.406;10.774;2022-10-04T01:17:06;0.60;;;0.60;;
7653;SDS011;3869;48.406;10.774;2022-10-04T01:19:35;0.70;;;0.60;;
7653;SDS011;3869;48.406;10.774;2022-10-04T01:22:08;0.60;;;0.60;;
7653;SDS011;3869;48.406;10.774;2022-10-04T01:24:39;2.13;;;1.30;;
7653;SDS011;3869;48.406;10.774;2022-10-04T01:29:59;0.63;;;0.50;;
7653;SDS011;3869;48.406;10.774;2022-10-04T01:32:28;0.70;;;0.50;;
7653;SDS011;3869;48.406;10.774;2022-10-04T01:34:57;0.73;;;0.57;;
7653;SDS011;3869;48.406;10.774;2022-10-04T01:37:26;1.00;;;0.67;;
7653;SDS011;3869;48.406;10.774;2022-10-04T01:39:55;0.60;;;0.50;;
7653;SDS011;3869;48.406;10.774;2022-10-04T01:42:25;0.70;;;0.50;;
7653;SDS011;3869;48.406;10.774;2022-10-04T01:44:59;0.60;;;0.50;;
7653;SDS011;3869;48.406;10.774;2022-10-04T01:47:34;0.60;;;0.50;;
7653;SDS011;3869;48.406;10.774;2022-10-04T01:50:23;0.60;;;0.50;;
7653;SDS011;3869;48.406;10.774;2022-10-04T01:52:56;1.10;;;0.63;;
7653;SDS011;3869;48.406;10.774;2022-10-04T01:55:34;0.90;;;0.70;;
7653;SDS011;3869;48.406;10.774;2022-10-04T01:58:08;0.60;;;0.50;;
7653;SDS011;3869;48.406;10.774;2022-10-04T02:00:41;1.43;;;0.60;;
7653;SDS011;3869;48.406;10.774;2022-10-04T02:03:16;3.13;;;0.80;;
7653;SDS011;3869;48.406;10.774;2022-10-04T02:05:50;0.77;;;0.57;;
7653;SDS011;3869;48.406;10.774;2022-10-04T02:08:23;0.60;;;0.60;;
7653;SDS011;3869;48.406;10.774;2022-10-04T02:10:55;0.60;;;0.50;;
7653;SDS011;3869;48.406;10.774;2022-10-04T02:13:24;0.70;;;0.70;;
7653;SDS011;3869;48.406;10.774;2022-10-04T02:15:55;0.80;;;0.77;;
7653;SDS011;3869;48.406;10.774;2022-10-04T02:18:25;0.60;;;0.50;;
7653;SDS011;3869;48.406;10.774;2022-10-04T02:20:55;0.70;;;0.60;;
7653;SDS011;3869;48.406;10.774;2022-10-04T02:23:24;0.97;;;0.87;;
7653;SDS011;3869;48.406;10.774;2022-10-04T02:25:54;0.60;;;0.50;;
7653;SDS011;3869;48.406;10.774;2022-10-04T02:28:23;1.03;;;0.93;;
7653;SDS011;3869;48.406;10.774;2022-10-04T02:30:51;0.83;;;0.70;;
7653;SDS011;3869;48.406;10.774;2022-10-04T02:33:38;0.60;;;0.50;;
7653;SDS011;3869;48.406;10.774;2022-10-04T02:36:07;0.70;;;0.50;;
7653;SDS011;3869;48.406;10.774;2022-10-04T02:38:36;0.67;;;0.60;;
7653;SDS011;3869;48.406;10.774;2022-10-04T02:41:10;0.70;;;0.60;;
7653;SDS011;3869;48.406;10.774;2022-10-04T02:43:46;2.37;;;0.80;;
7653;SDS011;3869;48.406;10.774;2022-10-04T02:46:19;0.70;;;0.60;;
7653;SDS011;3869;48.406;10.774;2022-10-04T02:48:52;0.77;;;0.53;;
7653;SDS011;3869;48.406;10.774;2022-10-04T02:51:24;0.70;;;0.50;;
7653;SDS011;3869;48.406;10.774;2022-10-04T02:54:01;1.17;;;0.57;;
7653;SDS011;3869;48.406;10.774;2022-10-04T02:56:34;1.23;;;0.60;;
7653;SDS011;3869;48.406;10.774;2022-10-04T02:59:04;0.80;;;0.80;;
7653;SDS011;3869;48.406;10.774;2022-10-04T03:01:39;0.80;;;0.80;;
7653;SDS011;3869;48.406;10.774;2022-10-04T03:04:13;0.70;;;0.50;;
7653;SDS011;3869;48.406;10.774;2022-10-04T03:06:42;1.07;;;0.97;;
7653;SDS011;3869;48.406;10.774;2022-10-04T03:09:12;0.70;;;0.70;;
7653;SDS011;3869;48.406;10.774;2022-10-04T03:11:42;1.13;;;0.60;;
7653;SDS011;3869;48.406;10.774;2022-10-04T03:14:12;0.70;;;0.50;;
7653;SDS011;3869;48.406;10.774;2022-10-04T03:16:43;1.83;;;0.97;;
7653;SDS011;3869;48.406;10.774;2022-10-04T03:19:11;0.70;;;0.70;;
7653;SDS011;3869;48.406;10.774;2022-10-04T03:21:42;0.67;;;0.60;;
7653;SDS011;3869;48.406;10.774;2022-10-04T03:24:15;1.33;;;1.00;;
7653;SDS011;3869;48.406;10.774;2022-10-04T03:26:47;2.20;;;1.20;;
7653;SDS011;3869;48.406;10.774;2022-10-04T03:29:19;1.37;;;0.70;;
7653;SDS011;3869;48.406;10.774;2022-10-04T03:31:50;0.70;;;0.67;;
7653;SDS011;3869;48.406;10.774;2022-10-04T03:34:23;0.80;;;0.80;;
7653;SDS011;3869;48.406;10.774;2022-10-04T03:36:53;1.00;;;0.90;;
7653;SDS011;3869;48.406;10.774;2022-10-04T03:39:26;2.50;;;1.47;;
7653;SDS011;3869;48.406;10.774;2022-10-04T03:41:59;0.90;;;0.90;;
7653;SDS011;3869;48.406;10.774;2022-10-04T03:44:30;0.70;;;0.60;;
7653;SDS011;3869;48.406;10.774;2022-10-04T03:46:58;0.80;;;0.67;;
7653;SDS011;3869;48.406;10.774;2022-10-04T03:49:30;1.00;;;0.90;;
7653;SDS011;3869;48.406;10.774;2022-10-04T03:52:01;2.30;;;1.43;;
7653;SDS011;3869;48.406;10.774;2022-10-04T03:54:30;0.70;;;0.50;;
7653;SDS011;3869;48.406;10.774;2022-10-04T03:57:00;1.10;;;1.00;;
7653;SDS011;3869;48.406;10.774;2022-10-04T03:59:29;0.70;;;0.70;;
7653;SDS011;3869;48.406;10.774;2022-10-04T04:02:01;0.77;;;0.60;;
7653;SDS011;3869;48.406;10.774;2022-10-04T04:04:35;0.73;;;0.70;;
7653;SDS011;3869;48.406;10.774;2022-10-04T04:07:10;0.70;;;0.50;;
7653;SDS011;3869;48.406;10.774;2022-10-04T04:09:42;0.70;;;0.70;;
7653;SDS011;3869;48.406;10.774;2022-10-04T04:12:15;0.70;;;0.50;;
7653;SDS011;3869;48.406;10.774;2022-10-04T04:14:46;0.80;;;0.70;;
7653;SDS011;3869;48.406;10.774;2022-10-04T04:17:32;0.70;;;0.60;;
7653;SDS011;3869;48.406;10.774;2022-10-04T04:20:05;0.90;;;0.50;;
7653;SDS011;3869;48.406;10.774;2022-10-04T04:22:42;0.70;;;0.50;;
7653;SDS011;3869;48.406;10.774;2022-10-04T04:25:13;0.70;;;0.60;;
7653;SDS011;3869;48.406;10.774;2022-10-04T04:27:43;0.70;;;0.70;;
7653;SDS011;3869;48.406;10.774;2022-10-04T04:30:15;0.60;;;0.50;;
7653;SDS011;3869;48.406;10.774;2022-10-04T04:32:45;1.80;;;0.70;;
7653;SDS011;3869;48.406;10.774;2022-10-04T04:35:21;0.80;;;0.60;;
7653;SDS011;3869;48.406;10.774;2022-10-04T04:38:01;0.70;;;0.50;;
7653;SDS011;3869;48.406;10.774;2022-10-04T04:40:31;1.00;;;1.00;;
7653;SDS011;3869;48.406;10.774;2022-10-04T04:43:00;0.70;;;0.57;;
7653;SDS011;3869;48.406;10.774;2022-10-04T04:45:29;0.70;;;0.50;;
7653;SDS011;3869;48.406;10.774;2022-10-04T04:47:59;1.10;;;0.70;;
7653;SDS011;3869;48.406;10.774;2022-10-04T04:50:29;0.87;;;0.80;;
7653;SDS011;3869;48.406;10.774;2022-10-04T04:53:02;3.57;;;1.00;;
7653;SDS011;3869;48.406;10.774;2022-10-04T04:55:36;0.70;;;0.60;;
7653;SDS011;3869;48.406;10.774;2022-10-04T04:58:29;0.70;;;0.57;;
7653;SDS011;3869;48.406;10.774;2022-10-04T05:01:01;0.70;;;0.50;;
7653;SDS011;3869;48.406;10.774;2022-10-04T05:03:31;0.70;;;0.50;;
7653;SDS011;3869;48.406;10.774;2022-10-04T05:06:00;1.47;;;1.37;;
7653;SDS011;3869;48.406;10.774;2022-10-04T05:08:30;1.23;;;1.10;;
7653;SDS011;3869;48.406;10.774;2022-10-04T05:11:09;1.30;;;1.20;;
7653;SDS011;3869;48.406;10.774;2022-10-04T05:13:43;3.37;;;1.23;;
7653;SDS011;3869;48.406;10.774;2022-10-04T05:16:18;9.77;;;1.77;;
7653;SDS011;3869;48.406;10.774;2022-10-04T05:18:53;0.70;;;0.50;;
7653;SDS011;3869;48.406;10.774;2022-10-04T05:21:24;1.27;;;1.17;;
7653;SDS011;3869;48.406;10.774;2022-10-04T05:23:56;0.70;;;0.60;;
7653;SDS011;3869;48.406;10.774;2022-10-04T05:26:33;0.83;;;0.60;;
7653;SDS011;3869;48.406;10.774;2022-10-04T05:29:07;0.70;;;0.57;;
7653;SDS011;3869;48.406;10.774;2022-10-04T05:31:40;0.73;;;0.60;;
7653;SDS011;3869;48.406;10.774;2022-10-04T05:34:17;1.00;;;0.73;;
7653;SDS011;3869;48.406;10.774;2022-10-04T05:36:57;1.53;;;1.43;;
7653;SDS011;3869;48.406;10.774;2022-10-04T05:39:49;1.17;;;0.60;;
7653;SDS011;3869;48.406;10.774;2022-10-04T05:42:27;1.30;;;1.17;;
7653;SDS011;3869;48.406;10.774;2022-10-04T05:45:10;1.27;;;0.67;;
7653;SDS011;3869;48.406;10.774;2022-10-04T05:47:41;1.40;;;1.30;;
7653;SDS011;3869;48.406;10.774;2022-10-04T05:50:13;4.77;;;1.10;;
7653;SDS011;3869;48.406;10.774;2022-10-04T05:52:43;3.17;;;1.10;;
7653;SDS011;3869;48.406;10.774;2022-10-04T05:55:20;11.40;;;1.50;;
7653;SDS011;3869;48.406;10.774;2022-10-04T05:58:05;2.70;;;1.07;;
7653;SDS011;3869;48.406;10.774;2022-10-04T06:00:57;3.00;;;1.57;;
7653;SDS011;3869;48.406;10.774;2022-10-04T06:03:50;9.00;;;1.50;;
7653;SDS011;3869;48.406;10.774;2022-10-04T06:06:33;1.03;;;0.70;;
7653;SDS011;3869;48.406;10.774;2022-10-04T06:09:08;2.13;;;1.53;;
7653;SDS011;3869;48.406;10.774;2022-10-04T06:11:44;5.10;;;4.40;;
7653;SDS011;3869;48.406;10.774;2022-10-04T06:17:28;1.07;;;0.97;;
7653;SDS011;3869;48.406;10.774;2022-10-04T06:23:14;1.87;;;1.73;;
7653;SDS011;3869;48.406;10.774;2022-10-04T06:25:44;0.80;;;0.70;;
7653;SDS011;3869;48.406;10.774;2022-10-04T06:28:18;1.33;;;0.80;;
7653;SDS011;3869;48.406;10.774;2022-10-04T06:30:59;1.47;;;1.37;;
7653;SDS011;3869;48.406;10.774;2022-10-04T06:33:50;1.10;;;1.00;;
7653;SDS011;3869;48.406;10.774;2022-10-04T06:36:36;2.40;;;1.30;;
7653;SDS011;3869;48.406;10.774;2022-10-04T06:39:23;0.93;;;0.93;;
7653;SDS011;3869;48.406;10.774;2022-10-04T06:42:11;2.10;;;1.27;;
7653;SDS011;3869;48.406;10.774;2022-10-04T06:44:57;1.30;;;1.00;;
7653;SDS011;3869;48.406;10.774;2022-10-04T06:47:39;1.47;;;1.20;;
7653;SDS011;3869;48.406;10.774;2022-10-04T06:50:24;2.50;;;1.13;;
7653;SDS011;3869;48.406;10.774;2022-10-04T06:59:01;0.80;;;0.73;;
7653;SDS011;3869;48.406;10.774;2022-10-04T07:01:49;3.40;;;1.50;;
7653;SDS011;3869;48.406;10.774;2022-10-04T07:04:23;1.53;;;1.37;;
7653;SDS011;3869;48.406;10.774;2022-10-04T07:07:22;1.40;;;1.30;;
7653;SDS011;3869;48.406;10.774;2022-10-04T07:10:02;1.30;;;1.20;;
7653;SDS011;3869;48.406;10.774;2022-10-04T07:12:52;1.50;;;0.87;;
7653;SDS011;3869;48.406;10.774;2022-10-04T07:15:30;1.03;;;0.93;;
7653;SDS011;3869;48.406;10.774;2022-10-04T07:18:11;1.17;;;1.07;;
7653;SDS011;3869;48.406;10.774;2022-10-04T07:20:42;10.30;;;3.43;;
7653;SDS011;3869;48.406;10.774;2022-10-04T07:23:19;1.43;;;1.33;;
7653;SDS011;3869;48.406;10.774;2022-10-04T07:25:54;5.97;;;2.23;;
7653;SDS011;3869;48.406;10.774;2022-10-04T07:28:28;2.00;;;1.33;;
7653;SDS011;3869;48.406;10.774;2022-10-04T07:31:19;5.60;;;1.30;;
7653;SDS011;3869;48.406;10.774;2022-10-04T07:33:53;1.37;;;1.00;;
7653;SDS011;3869;48.406;10.774;2022-10-04T07:36:25;3.03;;;1.20;;
7653;SDS011;3869;48.406;10.774;2022-10-04T07:38:57;1.47;;;1.00;;
7653;SDS011;3869;48.406;10.774;2022-10-04T07:41:33;2.30;;;1.50;;
7653;SDS011;3869;48.406;10.774;2022-10-04T07:44:05;2.00;;;1.90;;
7653;SDS011;3869;48.406;10.774;2022-10-04T07:46:45;1.80;;;1.27;;
7653;SDS011;3869;48.406;10.774;2022-10-04T07:49:18;1.80;;;1.70;;
7653;SDS011;3869;48.406;10.774;2022-10-04T07:51:58;1.77;;;1.30;;
7653;SDS011;3869;48.406;10.774;2022-10-04T07:54:39;1.30;;;1.17;;
7653;SDS011;3869;48.406;10.774;2022-10-04T07:57:14;1.27;;;1.17;;
7653;SDS011;3869;48.406;10.774;2022-10-04T07:59:50;1.00;;;0.87;;
7653;SDS011;3869;48.406;10.774;2022-10-04T08:02:26;2.40;;;1.90;;
7653;SDS011;3869;48.406;10.774;2022-10-04T08:05:10;0.83;;;0.83;;
7653;SDS011;3869;48.406;10.774;2022-10-04T08:07:49;0.93;;;0.93;;
7653;SDS011;3869;48.406;10.774;2022-10-04T08:10:38;1.67;;;1.43;;
7653;SDS011;3869;48.406;10.774;2022-10-04T08:13:14;2.93;;;1.50;;
7653;SDS011;3869;48.406;10.774;2022-10-04T08:15:48;2.27;;;1.70;;
7653;SDS011;3869;48.406;10.774;2022-10-04T08:18:20;18.43;;;1.80;;
7653;SDS011;3869;48.406;10.774;2022-10-04T08:21:01;1.60;;;1.50;;
7653;SDS011;3869;48.406;10.774;2022-10-04T08:23:49;1.20;;;1.10;;
7653;SDS011;3869;48.406;10.774;2022-10-04T08:26:32;2.00;;;1.20;;
7653;SDS011;3869;48.406;10.774;2022-10-04T08:29:18;2.83;;;2.03;;
7653;SDS011;3869;48.406;10.774;2022-10-04T08:32:12;3.67;;;2.07;;
7653;SDS011;3869;48.406;10.774;2022-10-04T08:34:55;1.23;;;1.20;;
7653;SDS011;3869;48.406;10.774;2022-10-04T08:37:44;2.50;;;2.10;;
7653;SDS011;3869;48.406;10.774;2022-10-04T08:43:47;1.67;;;1.57;;
7653;SDS011;3869;48.406;10.774;2022-10-04T08:56:12;4.10;;;1.77;;
7653;SDS011;3869;48.406;10.774;2022-10-04T09:02:02;1.10;;;1.10;;
7653;SDS011;3869;48.406;10.774;2022-10-04T09:04:59;13.60;;;2.47;;
7653;SDS011;3869;48.406;10.774;2022-10-04T09:07:54;1.70;;;1.60;;
7653;SDS011;3869;48.406;10.774;2022-10-04T09:13:39;1.63;;;1.17;;
7653;SDS011;3869;48.406;10.774;2022-10-04T09:16:14;3.47;;;2.10;;
7653;SDS011;3869;48.406;10.774;2022-10-04T09:18:49;4.63;;;2.97;;
7653;SDS011;3869;48.406;10.774;2022-10-04T09:21:41;1.13;;;1.13;;
7653;SDS011;3869;48.406;10.774;2022-10-04T09:24:26;5.60;;;1.70;;
7653;SDS011;3869;48.406;10.774;2022-10-04T09:27:10;3.50;;;2.70;;
7653;SDS011;3869;48.406;10.774;2022-10-04T09:30:10;1.60;;;1.47;;
7653;SDS011;3869;48.406;10.774;2022-10-04T09:32:58;1.73;;;1.30;;
7653;SDS011;3869;48.406;10.774;2022-10-04T09:35:49;7.80;;;2.00;;
7653;SDS011;3869;48.406;10.774;2022-10-04T09:41:56;1.73;;;1.60;;
7653;SDS011;3869;48.406;10.774;2022-10-04T09:47:55;1.73;;;1.50;;
7653;SDS011;3869;48.406;10.774;2022-10-04T09:53:48;2.00;;;1.30;;
7653;SDS011;3869;48.406;10.774;2022-10-04T09:56:31;0.93;;;0.80;;
7653;SDS011;3869;48.406;10.774;2022-10-04T09:59:23;1.40;;;1.30;;
7653;SDS011;3869;48.406;10.774;2022-10-04T10:02:08;1.30;;;1.20;;
7653;SDS011;3869;48.406;10.774;2022-10-04T10:05:00;1.70;;;1.60;;
7653;SDS011;3869;48.406;10.774;2022-10-04T10:07:57;1.10;;;1.03;;
7653;SDS011;3869;48.406;10.774;2022-10-04T10:10:35;5.47;;;1.73;;
7653;SDS011;3869;48.406;10.774;2022-10-04T10:16:36;2.00;;;1.83;;
7653;SDS011;3869;48.406;10.774;2022-10-04T10:19:15;2.80;;;1.87;;
7653;SDS011;3869;48.406;10.774;2022-10-04T10:22:12;1.60;;;1.10;;
7653;SDS011;3869;48.406;10.774;2022-10-04T10:25:03;2.33;;;1.53;;
7653;SDS011;3869;48.406;10.774;2022-10-04T10:27:47;2.00;;;1.73;;
7653;SDS011;3869;48.406;10.774;2022-10-04T10:30:23;1.80;;;1.47;;
7653;SDS011;3869;48.406;10.774;2022-10-04T10:39:19;2.93;;;1.53;;
7653;SDS011;3869;48.406;10.774;2022-10-04T10:42:16;2.07;;;1.50;;
7653;SDS011;3869;48.406;10.774;2022-10-04T10:45:07;1.63;;;1.53;;
7653;SDS011;3869;48.406;10.774;2022-10-04T10:47:51;6.77;;;1.93;;
7653;SDS011;3869;48.406;10.774;2022-10-04T10:50:33;1.30;;;1.20;;
7653;SDS011;3869;48.406;10.774;2022-10-04T10:53:34;2.07;;;1.63;;
7653;SDS011;3869;48.406;10.774;2022-10-04T10:56:29;1.30;;;1.03;;
7653;SDS011;3869;48.406;10.774;2022-10-04T11:08:17;4.03;;;1.87;;
7653;SDS011;3869;48.406;10.774;2022-10-04T11:11:18;9.33;;;1.53;;
7653;SDS011;3869;48.406;10.774;2022-10-04T11:14:08;4.90;;;2.37;;
7653;SDS011;3869;48.406;10.774;2022-10-04T11:17:11;1.90;;;1.80;;
7653;SDS011;3869;48.406;10.774;2022-10-04T11:20:06;1.47;;;1.37;;
7653;SDS011;3869;48.406;10.774;2022-10-04T11:28:42;1.00;;;1.00;;
7653;SDS011;3869;48.406;10.774;2022-10-04T11:37:47;2.60;;;1.83;;
7653;SDS011;3869;48.406;10.774;2022-10-04T11:40:29;3.47;;;1.93;;
7653;SDS011;3869;48.406;10.774;2022-10-04T11:43:25;1.73;;;1.10;;
7653;SDS011;3869;48.406;10.774;2022-10-04T11:46:12;3.13;;;1.67;;
7653;SDS011;3869;48.406;10.774;2022-10-04T11:48:53;1.73;;;1.60;;
7653;SDS011;3869;48.406;10.774;2022-10-04T11:57:29;1.27;;;1.17;;
7653;SDS011;3869;48.406;10.774;2022-10-04T12:00:07;1.47;;;1.37;;
7653;SDS011;3869;48.406;10.774;2022-10-04T12:05:51;1.90;;;1.80;;
7653;SDS011;3869;48.406;10.774;2022-10-04T12:08:41;1.60;;;1.30;;
7653;SDS011;3869;48.406;10.774;2022-10-04T12:14:54;1.00;;;0.90;;
7653;SDS011;3869;48.406;10.774;2022-10-04T12:17:45;1.70;;;1.60;;
7653;SDS011;3869;48.406;10.774;2022-10-04T12:20:42;1.87;;;1.70;;
7653;SDS011;3869;48.406;10.774;2022-10-04T12:23:34;6.00;;;1.67;;
7653;SDS011;3869;48.406;10.774;2022-10-04T12:29:31;1.07;;;1.00;;
7653;SDS011;3869;48.406;10.774;2022-10-04T12:32:43;0.87;;;0.87;;
7653;SDS011;3869;48.406;10.774;2022-10-04T12:35:33;1.60;;;1.40;;
7653;SDS011;3869;48.406;10.774;2022-10-04T12:38:17;1.00;;;0.90;;
7653;SDS011;3869;48.406;10.774;2022-10-04T12:41:05;1.93;;;1.30;;
7653;SDS011;3869;48.406;10.774;2022-10-04T12:43:43;1.00;;;1.00;;
7653;SDS011;3869;48.406;10.774;2022-10-04T12:46:20;1.43;;;0.90;;
7653;SDS011;3869;48.406;10.774;2022-10-04T12:49:04;1.20;;;1.10;;
7653;SDS011;3869;48.406;10.774;2022-10-04T12:51:46;1.00;;;1.00;;
7653;SDS011;3869;48.406;10.774;2022-10-04T12:54:25;3.00;;;1.40;;
7653;SDS011;3869;48.406;10.774;2022-10-04T12:57:13;1.67;;;1.47;;
7653;SDS011;3869;48.406;10.774;2022-10-04T13:00:02;1.57;;;1.47;;
7653;SDS011;3869;48.406;10.774;2022-10-04T13:02:47;1.73;;;1.07;;
7653;SDS011;3869;48.406;10.774;2022-10-04T13:05:39;6.43;;;0.90;;
7653;SDS011;3869;48.406;10.774;2022-10-04T13:08:21;1.20;;;1.10;;
7653;SDS011;3869;48.406;10.774;2022-10-04T13:11:04;2.97;;;1.67;;
7653;SDS011;3869;48.406;10.774;2022-10-04T13:13:59;1.30;;;0.80;;
7653;SDS011;3869;48.406;10.774;2022-10-04T13:16:50;6.37;;;1.40;;
7653;SDS011;3869;48.406;10.774;2022-10-04T13:19:45;1.23;;;1.03;;
7653;SDS011;3869;48.406;10.774;2022-10-04T13:22:31;1.03;;;1.00;;
7653;SDS011;3869;48.406;10.774;2022-10-04T13:25:25;1.57;;;1.10;;
7653;SDS011;3869;48.406;10.774;2022-10-04T13:28:04;4.93;;;2.20;;
7653;SDS011;3869;48.406;10.774;2022-10-04T13:30:48;1.57;;;1.47;;
7653;SDS011;3869;48.406;10.774;2022-10-04T13:33:29;1.33;;;1.23;;
7653;SDS011;3869;48.406;10.774;2022-10-04T13:36:05;1.17;;;1.07;;
7653;SDS011;3869;48.406;10.774;2022-10-04T13:38:43;1.50;;;1.40;;
7653;SDS011;3869;48.406;10.774;2022-10-04T13:41:31;1.90;;;1.40;;
7653;SDS011;3869;48.406;10.774;2022-10-04T13:44:11;1.83;;;1.23;;
7653;SDS011;3869;48.406;10.774;2022-10-04T13:47:02;1.17;;;1.07;;
7653;SDS011;3869;48.406;10.774;2022-10-04T13:49:41;2.00;;;1.63;;
7653;SDS011;3869;48.406;10.774;2022-10-04T13:52:25;2.73;;;1.47;;
7653;SDS011;3869;48.406;10.774;2022-10-04T13:55:25;3.13;;;2.17;;
7653;SDS011;3869;48.406;10.774;2022-10-04T13:58:27;2.10;;;1.10;;
7653;SDS011;3869;48.406;10.774;2022-10-04T14:08:59;3.80;;;1.93;;
7653;SDS011;3869;48.406;10.774;2022-10-04T14:11:42;1.20;;;1.10;;
7653;SDS011;3869;48.406;10.774;2022-10-04T14:17:48;1.07;;;1.03;;
7653;SDS011;3869;48.406;10.774;2022-10-04T14:26:52;1.37;;;1.27;;
7653;SDS011;3869;48.406;10.774;2022-10-04T14:29:50;2.13;;;1.23;;
7653;SDS011;3869;48.406;10.774;2022-10-04T14:32:40;4.43;;;1.73;;
7653;SDS011;3869;48.406;10.774;2022-10-04T14:35:30;1.20;;;1.10;;
7653;SDS011;3869;48.406;10.774;2022-10-04T14:38:05;0.60;;;0.60;;
7653;SDS011;3869;48.406;10.774;2022-10-04T14:44:30;0.83;;;0.83;;
7653;SDS011;3869;48.406;10.774;2022-10-04T14:47:17;1.10;;;1.00;;
7653;SDS011;3869;48.406;10.774;2022-10-04T14:50:02;1.73;;;1.60;;
7653;SDS011;3869;48.406;10.774;2022-10-04T14:52:56;3.10;;;1.40;;
7653;SDS011;3869;48.406;10.774;2022-10-04T14:55:37;1.40;;;1.30;;
7653;SDS011;3869;48.406;10.774;2022-10-04T14:58:36;1.10;;;1.00;;
7653;SDS011;3869;48.406;10.774;2022-10-04T15:01:17;1.10;;;1.10;;
7653;SDS011;3869;48.406;10.774;2022-10-04T15:03:57;0.80;;;0.80;;
7653;SDS011;3869;48.406;10.774;2022-10-04T15:06:46;1.17;;;0.80;;
7653;SDS011;3869;48.406;10.774;2022-10-04T15:09:24;2.20;;;1.37;;
7653;SDS011;3869;48.406;10.774;2022-10-04T15:15:39;2.80;;;1.00;;
7653;SDS011;3869;48.406;10.774;2022-10-04T15:18:30;1.33;;;1.23;;
7653;SDS011;3869;48.406;10.774;2022-10-04T15:21:08;2.60;;;1.60;;
7653;SDS011;3869;48.406;10.774;2022-10-04T15:23:47;1.47;;;1.37;;
7653;SDS011;3869;48.406;10.774;2022-10-04T15:26:43;9.13;;;1.50;;
7653;SDS011;3869;48.406;10.774;2022-10-04T15:29:19;4.87;;;1.77;;
7653;SDS011;3869;48.406;10.774;2022-10-04T15:31:58;1.47;;;1.23;;
7653;SDS011;3869;48.406;10.774;2022-10-04T15:34:34;3.53;;;2.17;;
7653;SDS011;3869;48.406;10.774;2022-10-04T15:37:13;1.70;;;1.60;;
7653;SDS011;3869;48.406;10.774;2022-10-04T15:39:55;4.40;;;2.93;;
7653;SDS011;3869;48.406;10.774;2022-10-04T15:42:32;2.40;;;2.20;;
7653;SDS011;3869;48.406;10.774;2022-10-04T15:48:00;1.23;;;1.17;;
7653;SDS011;3869;48.406;10.774;2022-10-04T15:50:54;1.23;;;1.13;;
7653;SDS011;3869;48.406;10.774;2022-10-04T15:53:40;1.93;;;1.23;;
7653;SDS011;3869;48.406;10.774;2022-10-04T15:56:39;1.33;;;1.23;;
7653;SDS011;3869;48.406;10.774;2022-10-04T15:59:23;4.30;;;2.00;;
7653;SDS011;3869;48.406;10.774;2022-10-04T16:02:18;1.50;;;1.17;;
7653;SDS011;3869;48.406;10.774;2022-10-04T16:05:11;0.70;;;0.70;;
7653;SDS011;3869;48.406;10.774;2022-10-04T16:08:01;1.23;;;1.00;;
7653;SDS011;3869;48.406;10.774;2022-10-04T16:10:53;3.63;;;0.80;;
7653;SDS011;3869;48.406;10.774;2022-10-04T16:19:28;0.90;;;0.90;;
7653;SDS011;3869;48.406;10.774;2022-10-04T16:22:14;1.10;;;1.00;;
7653;SDS011;3869;48.406;10.774;2022-10-04T16:24:45;4.00;;;1.50;;
7653;SDS011;3869;48.406;10.774;2022-10-04T16:27:18;0.97;;;0.87;;
7653;SDS011;3869;48.406;10.774;2022-10-04T16:29:57;1.07;;;0.97;;
7653;SDS011;3869;48.406;10.774;2022-10-04T16:33:03;1.20;;;1.10;;
7653;SDS011;3869;48.406;10.774;2022-10-04T16:35:48;0.87;;;0.87;;
7653;SDS011;3869;48.406;10.774;2022-10-04T16:38:28;1.37;;;1.10;;
7653;SDS011;3869;48.406;10.774;2022-10-04T16:41:05;0.90;;;0.90;;
7653;SDS011;3869;48.406;10.774;2022-10-04T16:43:37;1.00;;;1.00;;
7653;SDS011;3869;48.406;10.774;2022-10-04T16:46:18;3.43;;;1.10;;
7653;SDS011;3869;48.406;10.774;2022-10-04T16:48:53;0.70;;;0.70;;
7653;SDS011;3869;48.406;10.774;2022-10-04T16:54:41;4.00;;;1.40;;
7653;SDS011;3869;48.406;10.774;2022-10-04T16:57:26;1.00;;;0.90;;
7653;SDS011;3869;48.406;10.774;2022-10-04T16:59:55;1.27;;;0.90;;
7653;SDS011;3869;48.406;10.774;2022-10-04T17:02:32;1.80;;;1.70;;
7653;SDS011;3869;48.406;10.774;2022-10-04T17:08:21;4.27;;;2.23;;
7653;SDS011;3869;48.406;10.774;2022-10-04T17:14:01;1.73;;;1.47;;
7653;SDS011;3869;48.406;10.774;2022-10-04T17:16:48;1.90;;;1.17;;
7653;SDS011;3869;48.406;10.774;2022-10-04T17:19:25;1.03;;;0.83;;
7653;SDS011;3869;48.406;10.774;2022-10-04T17:22:04;1.40;;;1.00;;
7653;SDS011;3869;48.406;10.774;2022-10-04T17:24:45;0.93;;;0.93;;
7653;SDS011;3869;48.406;10.774;2022-10-04T17:27:40;2.10;;;1.10;;
7653;SDS011;3869;48.406;10.774;2022-10-04T17:30:13;0.87;;;0.70;;
7653;SDS011;3869;48.406;10.774;2022-10-04T17:35:57;2.10;;;1.30;;
7653;SDS011;3869;48.406;10.774;2022-10-04T17:38:35;1.40;;;1.30;;
7653;SDS011;3869;48.406;10.774;2022-10-04T17:41:15;4.90;;;1.83;;
7653;SDS011;3869;48.406;10.774;2022-10-04T17:44:10;2.43;;;1.60;;
7653;SDS011;3869;48.406;10.774;2022-10-04T17:46:49;5.20;;;2.50;;
7653;SDS011;3869;48.406;10.774;2022-10-04T17:49:25;2.90;;;1.30;;
7653;SDS011;3869;48.406;10.774;2022-10-04T17:52:19;1.20;;;1.20;;
7653;SDS011;3869;48.406;10.774;2022-10-04T17:55:13;0.90;;;0.73;;
7653;SDS011;3869;48.406;10.774;2022-10-04T17:57:47;1.20;;;1.10;;
7653;SDS011;3869;48.406;10.774;2022-10-04T18:00:19;2.35;;;1.95;;
7653;SDS011;3869;48.406;10.774;2022-10-04T18:05:45;1.75;;;1.65;;
7653;SDS011;3869;48.406;10.774;2022-10-04T18:08:19;2.55;;;2.30;;
7653;SDS011;3869;48.406;10.774;2022-10-04T18:10:54;3.80;;;3.00;;
7653;SDS011;3869;48.406;10.774;2022-10-04T18:13:27;4.87;;;3.40;;
7653;SDS011;3869;48.406;10.774;2022-10-04T18:16:00;10.15;;;4.57;;
7653;SDS011;3869;48.406;10.774;2022-10-04T18:18:37;14.32;;;4.68;;
7653;SDS011;3869;48.406;10.774;2022-10-04T18:21:19;11.65;;;3.67;;
7653;SDS011;3869;48.406;10.774;2022-10-04T18:23:53;9.77;;;3.80;;
7653;SDS011;3869;48.406;10.774;2022-10-04T18:26:28;7.57;;;4.20;;
7653;SDS011;3869;48.406;10.774;2022-10-04T18:29:00;12.73;;;3.55;;
7653;SDS011;3869;48.406;10.774;2022-10-04T18:31:34;8.80;;;2.80;;
7653;SDS011;3869;48.406;10.774;2022-10-04T18:34:16;5.63;;;2.20;;
7653;SDS011;3869;48.406;10.774;2022-10-04T18:36:55;1.85;;;1.50;;
7653;SDS011;3869;48.406;10.774;2022-10-04T18:39:31;2.70;;;1.50;;
7653;SDS011;3869;48.406;10.774;2022-10-04T18:42:18;1.88;;;1.60;;
7653;SDS011;3869;48.406;10.774;2022-10-04T18:44:56;3.38;;;1.80;;
7653;SDS011;3869;48.406;10.774;2022-10-04T18:47:29;4.45;;;2.55;;
7653;SDS011;3869;48.406;10.774;2022-10-04T18:50:00;3.63;;;1.95;;